Windhoek, Namibia
Current Conditions -  °F | °C
As of 11:00 PM on Tuesday 21 Oct 2014 (Local Time) from FYWW Reporting Station
NA  
Wind Chill: 20°   Ceiling: NA
Heat Index: 20°   Visibility: NA
Dew Point: -10°   Wind: 2mph
Humidity: 12%   Direction: 170°S
Pressure: 30.24"   Gusts: NA
Location:  22.56°S, 17.09°E
Report Text: FYWW 212200Z AUTO 17002KT //// // ////// 20/M10 Q1024
Loading
Personal Weather Stations






























Interactive Weather Map New forecast layout! Learn more

10-Day Weather Forecast

Advertisements
Track Severe Weather on mobile